Time;durP1;ratioP1;P1;durP2;ratioP2;P2;SDS_P1;SDS_P2;PMS_P1;PMS_P2;Temp;Humidity;BMP_temperature;BMP_pressure;BME280_temperature;BME280_humidity;BME280_pressure;Samples;Min_cycle;Max_cycle;Signal;HPM_P1;HPM_P2
2023/09/30 00:00:13;;;;;;;6.15;3.22;;;;;;;22.00;50.30;100083.75;5121406;28;20027;-63
2023/09/30 00:02:38;;;;;;;4.70;3.33;;;;;;;21.98;50.56;100085.88;5131356;28;20101;-63
2023/09/30 00:05:04;;;;;;;5.72;4.20;;;;;;;22.01;50.80;100090.81;5122759;27;20027;-63
2023/09/30 00:07:29;;;;;;;6.32;3.85;;;;;;;22.03;50.51;100086.03;5125510;27;20023;-63
2023/09/30 00:09:55;;;;;;;7.95;3.97;;;;;;;21.97;50.79;100085.03;5124683;27;20044;-63
2023/09/30 00:12:20;;;;;;;6.05;3.78;;;;;;;22.00;50.94;100089.16;5134898;27;20023;-64
2023/09/30 00:14:48;;;;;;;5.75;3.88;;;;;;;21.98;50.89;100085.88;5134923;27;20046;-63
2023/09/30 00:17:14;;;;;;;7.43;4.28;;;;;;;21.98;51.15;100080.47;5124731;27;20034;-63
2023/09/30 00:19:40;;;;;;;6.57;4.15;;;;;;;22.04;51.03;100081.47;5134046;27;20309;-64
2023/09/30 00:22:05;;;;;;;6.07;4.28;;;;;;;21.96;51.04;100080.69;5135047;27;20046;-63
2023/09/30 00:24:30;;;;;;;7.00;3.92;;;;;;;22.01;51.14;100084.59;5126872;27;20232;-63
2023/09/30 00:26:56;;;;;;;6.45;4.25;;;;;;;21.99;51.10;100091.03;5126122;27;20036;-64
2023/09/30 00:29:21;;;;;;;6.22;3.92;;;;;;;22.01;51.16;100093.50;5125584;27;20209;-63
2023/09/30 00:31:47;;;;;;;11.80;3.90;;;;;;;21.95;51.39;100089.03;5127054;27;20035;-63
2023/09/30 00:34:13;;;;;;;8.23;3.83;;;;;;;22.02;51.22;100084.34;5132397;27;20045;-64
2023/09/30 00:36:39;;;;;;;5.90;4.07;;;;;;;21.86;51.58;100083.13;5125253;27;20034;-63
2023/09/30 00:39:04;;;;;;;7.03;4.18;;;;;;;21.91;51.57;100080.56;5125011;27;20542;-63
2023/09/30 00:41:30;;;;;;;6.97;4.07;;;;;;;21.77;51.86;100084.44;5125606;27;20039;-63
2023/09/30 00:43:55;;;;;;;5.95;3.65;;;;;;;21.62;52.48;100087.53;5125235;27;20057;-64
2023/09/30 00:46:32;;;;;;;10.13;4.03;;;;;;;21.70;51.90;100089.09;5125272;27;20039;-63
2023/09/30 00:48:59;;;;;;;7.22;4.22;;;;;;;21.86;51.75;100080.44;5125075;27;20202;-63
2023/09/30 00:51:26;;;;;;;6.38;4.38;;;;;;;21.93;51.30;100089.25;5125872;27;20039;-63
2023/09/30 00:53:53;;;;;;;7.13;4.22;;;;;;;21.64;52.25;100082.75;5125224;27;20119;-64
2023/09/30 00:56:22;;;;;;;7.45;3.80;;;;;;;21.65;51.92;100091.66;5125147;27;20047;-64
2023/09/30 00:58:51;;;;;;;6.25;3.90;;;;;;;21.81;51.94;100087.50;5123926;27;20048;-63
2023/09/30 01:01:18;;;;;;;7.03;4.25;;;;;;;21.92;51.41;100100.25;5125791;27;20035;-64
2023/09/30 01:03:45;;;;;;;8.95;3.92;;;;;;;21.97;51.53;100087.75;5124887;27;20043;-63
2023/09/30 01:06:10;;;;;;;7.50;3.90;;;;;;;22.02;51.32;100092.44;5125590;27;20031;-63
2023/09/30 01:08:36;;;;;;;6.70;3.63;;;;;;;22.07;51.38;100099.88;5124237;27;20046;-63
2023/09/30 01:11:01;;;;;;;10.13;4.00;;;;;;;22.10;51.00;100097.56;5125001;27;20027;-64
2023/09/30 01:13:37;;;;;;;6.45;4.45;;;;;;;22.05;51.16;100092.03;5124280;27;20035;-63
2023/09/30 01:16:07;;;;;;;5.47;3.92;;;;;;;22.10;51.30;100097.56;5123829;27;20359;-63
2023/09/30 01:18:32;;;;;;;7.88;4.20;;;;;;;22.03;51.31;100090.59;5134071;27;20043;-63
2023/09/30 01:21:03;;;;;;;7.82;4.20;;;;;;;22.00;51.26;100089.16;5124934;27;20220;-63
2023/09/30 01:23:33;;;;;;;5.53;4.03;;;;;;;21.93;51.29;100100.03;5132109;27;20054;-63
2023/09/30 01:26:08;;;;;;;7.82;4.20;;;;;;;21.89;51.47;100093.44;5124464;27;20031;-63
2023/09/30 01:28:34;;;;;;;7.65;4.20;;;;;;;21.90;51.82;100086.19;5132794;27;20055;-63
2023/09/30 01:30:59;;;;;;;5.38;4.10;;;;;;;21.89;51.78;100093.44;5124303;27;20289;-63
2023/09/30 01:33:25;;;;;;;7.10;4.22;;;;;;;21.88;51.66;100088.28;5124566;27;20039;-63
2023/09/30 01:35:50;;;;;;;8.43;4.70;;;;;;;21.81;51.28;100096.44;5124030;27;20043;-63
2023/09/30 01:38:16;;;;;;;5.35;4.38;;;;;;;21.73;52.09;100090.53;5123916;27;20050;-63
2023/09/30 01:40:42;;;;;;;7.90;5.38;;;;;;;21.46;52.52;100096.22;5124113;27;20041;-63
2023/09/30 01:43:08;;;;;;;6.50;4.32;;;;;;;21.18;53.15;100088.63;5123216;27;20043;-63
2023/09/30 01:45:33;;;;;;;6.47;4.35;;;;;;;21.00;54.05;100096.66;5123649;27;20034;-63
2023/09/30 01:47:59;;;;;;;7.25;4.00;;;;;;;20.93;54.24;100098.59;5123724;27;20044;-64
2023/09/30 01:50:24;;;;;;;8.38;4.47;;;;;;;20.91;53.81;100092.63;5124555;27;20283;-64
2023/09/30 01:52:49;;;;;;;6.57;3.70;;;;;;;20.97;53.99;100094.41;5123717;27;20039;-64
2023/09/30 01:55:15;;;;;;;7.38;4.40;;;;;;;20.96;54.69;100093.59;5123349;27;20349;-64
2023/09/30 01:57:41;;;;;;;6.55;4.70;;;;;;;20.94;55.27;100084.91;5123573;27;20027;-64
2023/09/30 02:00:09;;;;;;;8.27;4.32;;;;;;;20.92;55.44;100092.38;5122537;27;20039;-64
2023/09/30 02:02:35;;;;;;;5.95;4.40;;;;;;;20.96;55.22;100088.22;5133525;27;20027;-65
2023/09/30 02:05:00;;;;;;;7.00;4.47;;;;;;;21.00;55.25;100083.22;5123423;27;20039;-64
2023/09/30 02:07:25;;;;;;;6.78;4.30;;;;;;;21.06;54.85;100084.19;5123972;27;20036;-65
2023/09/30 02:09:51;;;;;;;6.32;4.70;;;;;;;21.06;54.81;100076.94;5123685;27;20194;-64
2023/09/30 02:12:16;;;;;;;7.13;4.45;;;;;;;21.03;54.98;100072.00;5122877;27;20028;-64
2023/09/30 02:14:42;;;;;;;6.60;4.68;;;;;;;20.99;54.89;100076.19;5123088;27;20043;-64
2023/09/30 02:17:09;;;;;;;9.15;4.40;;;;;;;20.98;55.03;100071.84;5123864;27;20042;-64
2023/09/30 02:19:34;;;;;;;8.18;4.20;;;;;;;20.96;54.72;100068.53;5130492;27;20035;-64
2023/09/30 02:22:00;;;;;;;7.25;5.20;;;;;;;20.94;55.01;100071.47;5121030;27;20280;-64
2023/09/30 02:24:26;;;;;;;6.15;4.25;;;;;;;20.90;55.00;100070.25;5123676;27;20039;-65
2023/09/30 02:26:51;;;;;;;7.65;4.10;;;;;;;20.92;55.21;100070.03;5122780;27;20093;-65
2023/09/30 02:29:17;;;;;;;6.70;3.85;;;;;;;20.89;55.23;100073.16;5131593;27;20340;-64
2023/09/30 02:31:42;;;;;;;9.00;4.13;;;;;;;20.79;55.18;100070.94;5123767;27;20027;-64
2023/09/30 02:34:08;;;;;;;6.25;4.65;;;;;;;20.77;55.57;100074.91;5122009;27;20049;-64
2023/09/30 02:36:37;;;;;;;8.43;4.55;;;;;;;20.78;55.62;100065.78;5123183;27;20362;-64
2023/09/30 02:39:03;;;;;;;6.32;4.70;;;;;;;20.73;55.75;100063.75;5122406;27;20092;-64
2023/09/30 02:41:29;;;;;;;8.82;4.57;;;;;;;20.69;55.55;100063.38;5123029;27;20385;-64
2023/09/30 02:43:54;;;;;;;7.90;4.47;;;;;;;20.62;55.89;100073.38;5122358;27;20308;-64
2023/09/30 02:46:19;;;;;;;8.07;4.53;;;;;;;20.62;55.86;100073.38;5122237;27;20027;-64
2023/09/30 02:48:45;;;;;;;9.43;4.60;;;;;;;20.63;56.18;100071.50;5122804;27;20068;-64
2023/09/30 02:51:11;;;;;;;5.80;4.45;;;;;;;20.64;55.78;100073.16;5122497;27;20034;-64
2023/09/30 02:53:36;;;;;;;7.60;4.57;;;;;;;20.65;55.82;100074.78;5131640;27;20116;-64
2023/09/30 02:56:04;;;;;;;7.63;4.55;;;;;;;20.52;55.34;100083.78;5105152;27;20375;-64
2023/09/30 02:58:29;;;;;;;5.70;4.85;;;;;;;20.42;54.59;100080.75;5122354;27;20047;-64
2023/09/30 03:00:55;;;;;;;9.70;5.32;;;;;;;20.39;54.65;100067.75;5122458;27;20055;-63
2023/09/30 03:03:22;;;;;;;12.07;7.65;;;;;;;20.32;55.46;100065.09;5122503;27;20240;-63
2023/09/30 03:05:49;;;;;;;9.27;5.32;;;;;;;20.26;55.84;100073.19;5122023;27;20103;-64
2023/09/30 03:08:15;;;;;;;13.10;5.60;;;;;;;20.20;56.61;100076.75;5123142;27;20041;-64
2023/09/30 03:10:41;;;;;;;5.97;4.80;;;;;;;20.22;56.98;100074.66;5123157;27;20456;-64
2023/09/30 03:13:08;;;;;;;9.07;4.95;;;;;;;20.01;56.43;100073.13;5121530;27;20046;-64
2023/09/30 03:15:35;;;;;;;6.40;4.50;;;;;;;20.09;56.63;100080.94;5123009;27;20074;-63
2023/09/30 03:18:00;;;;;;;8.90;5.05;;;;;;;20.01;57.63;100081.19;5122350;27;20104;-64
2023/09/30 03:20:26;;;;;;;15.27;4.78;;;;;;;19.88;58.55;100079.41;5122088;27;20232;-63
2023/09/30 03:22:52;;;;;;;7.32;5.03;;;;;;;19.73;59.68;100076.16;5122890;27;20043;-63
2023/09/30 03:25:19;;;;;;;7.32;5.03;;;;;;;19.77;59.71;100080.09;5122197;27;20412;-63
2023/09/30 03:27:48;;;;;;;8.50;4.90;;;;;;;19.67;59.16;100083.19;5122836;27;20092;-63
2023/09/30 03:30:17;;;;;;;10.32;5.20;;;;;;;19.65;58.39;100082.59;5121608;27;20070;-63
2023/09/30 03:32:43;;;;;;;8.52;4.45;;;;;;;19.66;58.62;100083.41;5122672;27;20035;-63
2023/09/30 03:35:17;;;;;;;8.00;4.47;;;;;;;19.68;58.00;100075.97;5121653;27;20043;-65
2023/09/30 03:37:44;;;;;;;7.78;5.45;;;;;;;19.71;56.98;100084.41;5123526;27;20027;-63
2023/09/30 03:40:14;;;;;;;11.50;5.25;;;;;;;19.61;57.83;100083.22;5121642;27;20241;-63
2023/09/30 03:42:43;;;;;;;12.60;6.28;;;;;;;19.52;58.71;100088.00;5121621;28;20108;-63
2023/09/30 03:45:10;;;;;;;11.32;4.55;;;;;;;19.46;59.33;100081.59;5122217;28;20235;-64
2023/09/30 03:47:37;;;;;;;7.30;4.85;;;;;;;19.45;59.74;100081.78;5131949;28;20031;-64
2023/09/30 03:50:03;;;;;;;7.13;4.75;;;;;;;19.45;59.69;100084.47;5121760;28;20047;-63
2023/09/30 03:52:29;;;;;;;12.43;5.28;;;;;;;19.46;59.64;100086.13;5121434;28;20319;-63
2023/09/30 03:54:54;;;;;;;7.40;4.50;;;;;;;19.51;59.79;100086.31;5130874;28;20048;-63
2023/09/30 03:57:20;;;;;;;5.60;4.80;;;;;;;19.52;59.46;100090.69;5122296;28;20039;-63
2023/09/30 03:59:46;;;;;;;8.20;4.80;;;;;;;19.42;57.01;100087.59;5122325;28;20039;-63
2023/09/30 04:02:12;;;;;;;8.13;5.05;;;;;;;19.34;57.68;100090.50;5121730;28;20038;-63
2023/09/30 04:04:37;;;;;;;6.13;4.60;;;;;;;19.29;59.51;100090.31;5121912;28;20039;-63
2023/09/30 04:07:05;;;;;;;11.73;5.15;;;;;;;19.25;58.82;100083.72;5122120;28;20031;-63
2023/09/30 04:09:31;;;;;;;10.13;5.28;;;;;;;19.21;59.00;100086.00;5121281;28;20244;-63
2023/09/30 04:11:57;;;;;;;5.72;5.05;;;;;;;18.79;62.10;100084.59;5121628;28;20032;-63
2023/09/30 04:14:23;;;;;;;9.90;5.05;;;;;;;18.71;63.21;100084.78;5121086;27;20248;-63
2023/09/30 04:16:48;;;;;;;12.20;6.82;;;;;;;18.79;62.90;100084.59;5121686;28;20027;-63
2023/09/30 04:19:14;;;;;;;12.32;10.15;;;;;;;19.02;62.42;100089.53;5121694;28;20044;-63
2023/09/30 04:21:39;;;;;;;21.17;19.05;;;;;;;19.12;62.08;100093.44;5121716;28;20333;-64
2023/09/30 04:24:06;;;;;;;13.77;12.35;;;;;;;19.14;61.94;100087.88;5121675;28;20039;-63
2023/09/30 04:26:32;;;;;;;9.40;5.78;;;;;;;19.07;62.42;100092.41;5122719;28;20047;-63
2023/09/30 04:28:57;;;;;;;8.45;5.25;;;;;;;19.04;62.86;100095.53;5122024;28;20047;-63
2023/09/30 04:31:23;;;;;;;7.53;5.93;;;;;;;19.12;62.57;100103.34;5121722;27;20035;-63
2023/09/30 04:33:51;;;;;;;8.07;5.60;;;;;;;18.99;62.79;100088.09;5121047;28;20051;-64
2023/09/30 04:36:16;;;;;;;12.43;7.28;;;;;;;18.97;63.02;100102.75;5121190;28;20036;-64
2023/09/30 04:38:43;;;;;;;13.50;8.00;;;;;;;19.08;62.95;100100.25;5121316;28;20036;-63
2023/09/30 04:41:08;;;;;;;11.13;7.03;;;;;;;18.96;62.92;100101.09;5121175;28;20035;-63
2023/09/30 04:43:34;;;;;;;12.63;7.25;;;;;;;18.96;63.04;100111.84;5120700;28;20042;-63
2023/09/30 04:46:01;;;;;;;11.93;7.53;;;;;;;18.92;63.02;100103.38;5120130;28;20031;-63
2023/09/30 04:48:26;;;;;;;19.63;8.35;;;;;;;18.84;63.81;100103.59;5130500;28;20099;-63
2023/09/30 04:50:52;;;;;;;11.80;6.65;;;;;;;18.69;64.32;100108.31;5121777;27;20317;-63
2023/09/30 04:53:18;;;;;;;13.77;5.88;;;;;;;18.58;64.96;100111.56;5134037;27;20292;-63
2023/09/30 04:55:44;;;;;;;10.02;6.28;;;;;;;18.66;64.85;100103.34;5126980;27;20035;-63
2023/09/30 04:58:11;;;;;;;12.55;9.40;;;;;;;18.69;64.85;100109.13;5131980;27;20027;-63
2023/09/30 05:00:36;;;;;;;10.00;6.25;;;;;;;18.55;65.66;100112.78;5125139;27;20023;-63
2023/09/30 05:03:02;;;;;;;9.15;5.68;;;;;;;18.56;65.75;100119.81;5124702;27;20258;-63
2023/09/30 05:05:28;;;;;;;12.88;8.30;;;;;;;18.64;65.62;100111.59;5134145;27;20090;-63
2023/09/30 05:07:54;;;;;;;15.48;8.27;;;;;;;18.72;65.29;100115.94;5125883;27;20027;-63
2023/09/30 05:10:19;;;;;;;13.05;7.07;;;;;;;18.66;65.26;100119.44;5124267;27;20065;-63
2023/09/30 05:12:48;;;;;;;10.57;5.93;;;;;;;18.50;65.83;100118.78;5124569;27;20191;-63
2023/09/30 05:15:15;;;;;;;8.68;5.85;;;;;;;18.46;66.14;100120.22;5134302;27;20063;-64
2023/09/30 05:17:44;;;;;;;12.73;8.45;;;;;;;18.33;67.23;100127.41;5123839;27;20137;-64
2023/09/30 05:20:12;;;;;;;14.68;10.15;;;;;;;18.42;67.24;100123.50;5123699;27;20031;-64
2023/09/30 05:22:38;;;;;;;13.38;9.85;;;;;;;18.29;67.81;100123.47;5124259;27;20084;-64
2023/09/30 05:25:04;;;;;;;11.35;6.40;;;;;;;18.33;67.88;100130.09;5123518;27;20050;-63
2023/09/30 05:27:30;;;;;;;14.38;6.90;;;;;;;18.32;67.93;100129.25;5123781;27;20035;-63
2023/09/30 05:29:56;;;;;;;15.80;7.85;;;;;;;18.46;67.52;100138.16;5123157;27;20032;-63
2023/09/30 05:32:22;;;;;;;12.13;6.10;;;;;;;18.20;68.08;100136.25;5131672;27;20031;-63
2023/09/30 05:34:48;;;;;;;12.20;6.80;;;;;;;18.52;67.32;100137.34;5123424;27;20051;-63
2023/09/30 05:37:13;;;;;;;14.45;7.70;;;;;;;18.81;65.91;100144.25;5123675;27;21013;-64
2023/09/30 05:39:39;;;;;;;11.73;6.45;;;;;;;18.99;64.59;100144.44;5123931;27;20043;-64
2023/09/30 05:42:05;;;;;;;9.38;5.78;;;;;;;19.09;63.59;100138.66;5123239;27;20084;-64
2023/09/30 05:44:31;;;;;;;13.55;7.32;;;;;;;19.29;62.52;100131.41;5123216;27;20102;-63
2023/09/30 05:46:57;;;;;;;12.45;7.20;;;;;;;19.43;61.44;100132.22;5122385;27;20396;-63
2023/09/30 05:49:23;;;;;;;14.32;11.38;;;;;;;19.67;60.50;100138.78;5123225;27;20096;-63
2023/09/30 05:51:50;;;;;;;9.57;7.30;;;;;;;19.82;59.92;100143.94;5123426;27;20076;-64
2023/09/30 05:54:16;;;;;;;16.23;14.63;;;;;;;19.96;60.00;100138.28;5129365;27;20055;-63
2023/09/30 05:56:43;;;;;;;11.57;10.02;;;;;;;19.98;58.96;100144.28;5126012;27;20050;-64
2023/09/30 05:59:09;;;;;;;10.93;7.75;;;;;;;20.21;58.96;100149.13;5123000;27;20031;-63
2023/09/30 06:01:35;;;;;;;10.70;8.32;;;;;;;20.38;57.17;100141.38;5132297;27;20076;-64
2023/09/30 06:04:01;;;;;;;11.68;8.00;;;;;;;20.47;56.49;100136.59;5123927;27;20044;-64
2023/09/30 06:06:30;;;;;;;10.43;6.32;;;;;;;20.68;56.01;100144.31;5121623;27;20072;-64
2023/09/30 06:09:00;;;;;;;11.60;6.70;;;;;;;20.85;55.60;100142.75;5124024;27;20042;-66
2023/09/30 06:11:28;;;;;;;9.15;5.22;;;;;;;20.95;55.42;100151.16;5122765;27;20036;-63
2023/09/30 06:14:01;;;;;;;10.75;5.00;;;;;;;21.28;55.16;100140.13;5123665;27;20043;-63
2023/09/30 06:16:27;;;;;;;10.80;5.77;;;;;;;21.27;54.91;100143.06;5123996;27;20948;-63
2023/09/30 06:18:53;;;;;;;7.65;5.38;;;;;;;21.38;54.37;100133.41;5122967;27;20047;-63
2023/09/30 06:21:24;;;;;;;9.27;5.55;;;;;;;21.57;53.66;100149.38;5123746;27;20136;-63
2023/09/30 06:23:53;;;;;;;10.18;6.38;;;;;;;21.89;53.17;100141.97;5123674;27;20059;-63
2023/09/30 06:26:18;;;;;;;9.55;5.30;;;;;;;21.98;52.06;100139.78;5122058;27;20023;-63
2023/09/30 06:28:45;;;;;;;7.68;5.15;;;;;;;22.23;51.91;100145.09;5131437;27;20139;-63
2023/09/30 06:31:11;;;;;;;15.45;5.68;;;;;;;22.37;50.57;100149.25;5123453;27;20263;-64
2023/09/30 06:33:39;;;;;;;11.88;5.68;;;;;;;22.46;49.87;100138.97;5123146;27;20043;-64
2023/09/30 06:36:23;;;;;;;16.85;5.55;;;;;;;22.60;49.54;100138.53;5131416;27;20077;-64
2023/09/30 06:38:50;;;;;;;;;;;;;;;22.62;48.72;100141.81;5123884;27;20395;-63
2023/09/30 06:41:19;;;;;;;10.80;5.00;;;;;;;22.70;49.00;100135.28;5123144;27;19927;-63
2023/09/30 06:43:45;;;;;;;12.13;6.05;;;;;;;22.89;48.28;100136.06;5122557;27;20071;-63
2023/09/30 06:46:10;;;;;;;9.27;5.88;;;;;;;23.05;48.32;100140.78;5128112;27;20058;-63
2023/09/30 06:48:37;;;;;;;8.57;5.90;;;;;;;22.99;46.67;100139.00;5125678;27;20027;-63
2023/09/30 06:51:02;;;;;;;15.93;6.50;;;;;;;23.12;46.35;100137.97;5122877;27;20031;-64
2023/09/30 06:53:28;;;;;;;10.75;6.10;;;;;;;23.20;46.49;100145.72;5122401;27;20062;-63
2023/09/30 06:55:53;;;;;;;12.10;6.47;;;;;;;23.35;45.79;100139.84;5122987;27;20035;-63
2023/09/30 06:58:22;;;;;;;18.08;6.55;;;;;;;23.52;45.99;100138.88;5122033;27;20050;-63
2023/09/30 07:00:50;;;;;;;13.98;6.60;;;;;;;23.59;45.25;100141.50;5122125;27;20099;-63
2023/09/30 07:03:16;;;;;;;13.88;6.55;;;;;;;23.66;45.32;100142.19;5121731;27;20097;-63
2023/09/30 07:05:42;;;;;;;9.18;5.95;;;;;;;23.66;45.88;100144.88;5122166;27;20099;-63
2023/09/30 07:08:09;;;;;;;11.00;6.40;;;;;;;23.84;45.39;100139.31;5132498;27;20039;-63
2023/09/30 07:10:35;;;;;;;13.35;6.80;;;;;;;24.03;44.63;100148.09;5122911;27;20277;-63
2023/09/30 07:13:04;;;;;;;11.02;7.40;;;;;;;24.17;43.86;100143.25;5123160;27;20072;-63
2023/09/30 07:15:30;;;;;;;13.13;6.28;;;;;;;24.28;43.69;100147.00;5123943;27;20050;-63
2023/09/30 07:17:56;;;;;;;14.45;5.60;;;;;;;24.46;44.10;100152.19;5122050;27;20069;-63
2023/09/30 07:20:22;;;;;;;9.52;5.43;;;;;;;24.56;43.40;100155.09;5121803;27;20027;-63
2023/09/30 07:22:48;;;;;;;9.43;6.03;;;;;;;24.74;42.65;100154.03;5121459;27;20425;-63
2023/09/30 07:25:17;;;;;;;9.75;6.40;;;;;;;24.81;42.48;100150.09;5121383;27;20035;-63
2023/09/30 07:27:46;;;;;;;20.75;6.80;;;;;;;24.98;41.94;100152.88;5121532;27;20233;-64
2023/09/30 07:30:14;;;;;;;10.55;6.10;;;;;;;25.03;41.91;100150.25;5121062;27;20035;-63
2023/09/30 07:32:42;;;;;;;10.25;4.95;;;;;;;25.13;40.21;100149.59;5122347;27;20098;-63
2023/09/30 07:35:08;;;;;;;10.93;5.38;;;;;;;25.24;40.67;100142.44;5121308;27;20035;-63
2023/09/30 07:37:33;;;;;;;12.30;5.47;;;;;;;25.22;40.00;100150.00;5132203;27;20042;-63
2023/09/30 07:39:59;;;;;;;7.47;4.75;;;;;;;25.28;39.54;100146.28;5129978;27;20038;-63
2023/09/30 07:42:25;;;;;;;9.25;4.75;;;;;;;25.36;39.60;100148.56;5122879;28;20069;-64
2023/09/30 07:44:50;;;;;;;8.88;5.25;;;;;;;25.41;39.87;100148.66;5121985;28;20036;-63
2023/09/30 07:47:16;;;;;;;10.98;4.93;;;;;;;25.44;38.67;100148.97;5122390;28;20299;-64
2023/09/30 07:49:41;;;;;;;12.50;5.55;;;;;;;25.50;39.02;100146.34;5124201;28;20046;-64
2023/09/30 07:52:07;;;;;;;7.80;4.45;;;;;;;25.55;38.01;100146.41;5134731;27;20285;-63
2023/09/30 07:54:32;;;;;;;10.57;5.47;;;;;;;25.63;38.08;100138.66;5133182;27;20069;-63
2023/09/30 07:56:58;;;;;;;9.77;5.93;;;;;;;25.77;39.22;100142.66;5134988;27;20355;-64
2023/09/30 07:59:24;;;;;;;12.70;5.10;;;;;;;25.83;38.36;100140.00;5134870;27;20304;-64
2023/09/30 08:01:50;;;;;;;8.40;4.70;;;;;;;25.91;37.92;100143.09;5135012;27;20028;-64
2023/09/30 08:04:16;;;;;;;8.88;4.95;;;;;;;26.00;38.75;100138.88;5134793;27;20232;-63
2023/09/30 08:06:41;;;;;;;7.78;4.53;;;;;;;26.05;37.04;100141.66;5135176;27;20028;-63
2023/09/30 08:09:11;;;;;;;9.40;4.72;;;;;;;26.10;37.24;100138.19;5135028;27;21072;-64
2023/09/30 08:11:37;;;;;;;10.50;4.95;;;;;;;26.14;37.94;100143.94;5135104;27;20075;-64
2023/09/30 08:14:06;;;;;;;10.95;4.93;;;;;;;26.20;37.37;100146.44;5134732;27;20270;-63
2023/09/30 08:16:33;;;;;;;8.25;7.45;;;;;;;26.14;36.66;100139.31;5134557;27;20061;-63
2023/09/30 08:18:58;;;;;;;7.95;5.88;;;;;;;26.13;37.39;100148.53;5134427;27;20045;-63
2023/09/30 08:21:24;;;;;;;8.57;5.50;;;;;;;26.19;37.45;100138.56;5134134;27;20369;-63
2023/09/30 08:23:49;;;;;;;9.27;5.03;;;;;;;26.33;36.26;100134.41;5134056;27;20228;-63
2023/09/30 08:26:15;;;;;;;13.07;6.15;;;;;;;26.40;36.61;100141.25;5136468;27;20031;-64
2023/09/30 08:28:40;;;;;;;8.50;4.35;;;;;;;26.54;35.61;100133.53;5139197;27;20035;-63
2023/09/30 08:31:06;;;;;;;10.23;4.50;;;;;;;26.65;35.84;100137.97;5138871;27;20023;-63
2023/09/30 08:33:35;;;;;;;10.38;9.07;;;;;;;26.68;36.05;100140.16;5138294;27;20278;-63
2023/09/30 08:36:06;;;;;;;9.68;5.20;;;;;;;26.59;34.70;100130.03;5138521;27;20027;-63
2023/09/30 08:38:32;;;;;;;8.63;4.28;;;;;;;26.71;33.99;100134.22;5119605;27;20054;-64
2023/09/30 08:40:59;;;;;;;10.50;4.38;;;;;;;26.81;33.97;100132.66;5140576;27;20035;-64
2023/09/30 08:43:27;;;;;;;14.82;6.38;;;;;;;26.85;34.06;100125.63;5140215;27;20042;-63
2023/09/30 08:45:53;;;;;;;6.28;4.10;;;;;;;26.92;33.60;100124.34;5139990;27;20373;-63
2023/09/30 08:48:20;;;;;;;12.35;5.95;;;;;;;26.96;34.14;100127.34;5140629;27;20049;-64
2023/09/30 08:50:49;;;;;;;7.35;4.35;;;;;;;26.99;33.51;100126.84;5140782;27;20236;-64
2023/09/30 08:53:16;;;;;;;7.32;5.38;;;;;;;26.87;34.11;100118.84;5139802;27;20084;-63
2023/09/30 08:55:43;;;;;;;10.88;5.28;;;;;;;26.92;33.66;100120.78;5140895;27;20165;-64
2023/09/30 08:58:11;;;;;;;10.93;5.57;;;;;;;26.66;32.79;100115.16;5139613;27;20046;-64
2023/09/30 09:00:38;;;;;;;10.30;5.03;;;;;;;26.72;33.68;100121.44;5140266;27;20103;-65
2023/09/30 09:03:05;;;;;;;8.23;4.47;;;;;;;26.82;33.58;100107.94;5140292;27;20045;-64
2023/09/30 09:05:31;;;;;;;12.45;6.35;;;;;;;26.80;34.18;100110.09;5141100;27;20027;-64
2023/09/30 09:07:56;;;;;;;12.10;4.97;;;;;;;26.92;33.66;100109.94;5140664;27;20069;-64
2023/09/30 09:10:22;;;;;;;8.15;4.63;;;;;;;26.98;32.92;100109.72;5140981;27;20031;-64
2023/09/30 09:12:56;;;;;;;7.28;4.60;;;;;;;27.02;33.08;100105.41;5140467;27;20236;-65
2023/09/30 09:15:25;;;;;;;6.55;4.75;;;;;;;27.07;33.89;100112.81;5139276;27;20035;-62
2023/09/30 09:17:51;;;;;;;9.18;4.80;;;;;;;27.08;32.98;100109.00;5140228;27;20038;-63
2023/09/30 09:20:20;;;;;;;10.40;5.07;;;;;;;27.14;33.82;100105.25;5138968;27;20031;-63
2023/09/30 09:22:47;;;;;;;11.75;4.97;;;;;;;27.16;32.43;100103.09;5140083;27;20047;-63
2023/09/30 09:25:12;;;;;;;11.35;6.50;;;;;;;27.22;32.60;100102.03;5139574;27;20031;-64
2023/09/30 09:27:38;;;;;;;12.63;5.40;;;;;;;27.19;32.32;100105.28;5140311;27;20026;-63
2023/09/30 09:30:21;;;;;;;11.20;5.35;;;;;;;27.07;31.63;100101.13;5140905;27;20035;-63
2023/09/30 09:33:04;;;;;;;9.30;7.80;;;;;;;26.95;30.12;100095.81;5141766;27;20062;-62
2023/09/30 09:35:32;;;;;;;;;;;;;;;26.87;31.26;100088.16;5141763;27;20039;-63
2023/09/30 09:38:02;;;;;;;15.38;5.05;;;;;;;26.88;32.46;100084.34;5135677;27;20176;-63
2023/09/30 09:40:30;;;;;;;7.43;3.97;;;;;;;26.89;32.25;100078.66;5141697;27;20046;-63
2023/09/30 09:42:57;;;;;;;11.30;7.95;;;;;;;26.88;32.91;100074.31;5140539;27;20046;-63
2023/09/30 09:45:24;;;;;;;8.80;4.15;;;;;;;26.85;30.86;100074.00;5141475;27;20030;-63
2023/09/30 09:47:51;;;;;;;6.47;5.78;;;;;;;26.83;30.64;100076.16;5140669;27;20126;-63
2023/09/30 09:50:18;;;;;;;8.63;5.07;;;;;;;26.82;30.42;100072.63;5140180;27;20039;-63
2023/09/30 09:52:47;;;;;;;6.63;5.38;;;;;;;26.84;30.97;100070.47;5138876;27;20041;-63
2023/09/30 09:55:16;;;;;;;12.68;4.78;;;;;;;26.91;30.62;100068.34;5139720;27;20055;-63
2023/09/30 09:57:43;;;;;;;9.80;4.90;;;;;;;27.03;30.88;100066.28;5134463;27;20374;-63
2023/09/30 10:00:14;;;;;;;8.40;4.90;;;;;;;27.09;30.78;100063.63;5122576;27;20028;-64
2023/09/30 10:02:40;;;;;;;8.27;5.07;;;;;;;27.12;31.30;100055.78;5123551;27;20072;-65
2023/09/30 10:05:07;;;;;;;13.13;5.03;;;;;;;27.21;30.75;100051.47;5123856;27;20027;-65
2023/09/30 10:07:45;;;;;;;15.48;6.75;;;;;;;27.18;28.65;100051.19;5131813;27;20027;-65
2023/09/30 10:10:16;;;;;;;7.20;4.03;;;;;;;27.13;28.43;100043.00;5130525;27;20043;-64
2023/09/30 10:12:42;;;;;;;11.80;6.43;;;;;;;27.02;29.59;100047.53;5123202;27;20035;-65
2023/09/30 10:15:25;;;;;;;13.48;5.20;;;;;;;27.01;30.42;100045.88;5121515;27;20491;-62
2023/09/30 10:18:09;;;;;;;8.48;4.72;;;;;;;27.06;29.69;100042.41;5121616;27;20378;-63
2023/09/30 10:20:37;;;;;;;9.30;4.80;;;;;;;27.14;30.14;100040.00;5121390;27;20291;-64
2023/09/30 10:23:17;;;;;;;4.97;4.15;;;;;;;27.20;27.49;100029.97;5121573;27;20039;-63
2023/09/30 10:25:47;;;;;;;10.45;6.82;;;;;;;27.13;28.03;100030.22;5122596;27;20028;-63
2023/09/30 10:28:35;;;;;;;5.80;3.97;;;;;;;27.03;27.76;100028.25;5122665;27;20039;-62
2023/09/30 10:31:24;;;;;;;11.73;4.60;;;;;;;27.06;27.78;100026.09;5123485;27;20079;-64
2023/09/30 10:33:59;;;;;;;6.60;3.75;;;;;;;27.07;26.40;100025.03;5122319;27;20065;-64
2023/09/30 10:36:32;;;;;;;8.27;4.50;;;;;;;27.07;29.08;100016.88;5122511;27;20290;-64
2023/09/30 10:38:59;;;;;;;7.03;4.15;;;;;;;27.17;28.54;100017.75;5127498;27;20047;-64
2023/09/30 10:41:45;;;;;;;6.97;4.50;;;;;;;27.22;28.89;100017.75;5126655;27;20028;-64
2023/09/30 10:44:26;;;;;;;10.35;9.40;;;;;;;27.19;27.61;100015.56;5122360;27;20050;-64
2023/09/30 10:46:53;;;;;;;7.32;4.78;;;;;;;27.19;27.98;100012.84;5122682;27;20039;-64
2023/09/30 10:49:24;;;;;;;11.77;5.28;;;;;;;27.13;27.88;100004.94;5121751;27;20050;-64
2023/09/30 10:51:54;;;;;;;7.95;5.93;;;;;;;27.11;28.49;100001.66;5122424;27;21158;-64
2023/09/30 10:54:25;;;;;;;7.35;5.22;;;;;;;27.14;27.46;100001.13;5122162;27;20067;-64
2023/09/30 10:56:50;;;;;;;13.88;4.55;;;;;;;27.15;27.00;99998.16;5123105;27;20027;-63
2023/09/30 10:59:23;;;;;;;10.98;4.50;;;;;;;27.20;26.63;99994.63;5122218;27;20036;-63
2023/09/30 11:01:50;;;;;;;11.27;5.22;;;;;;;27.15;26.62;99992.72;5122523;27;20175;-63
2023/09/30 11:04:15;;;;;;;6.18;4.75;;;;;;;27.13;27.81;99986.72;5122406;27;20080;-63
2023/09/30 11:06:42;;;;;;;6.30;5.55;;;;;;;27.14;27.46;99980.22;5122823;27;20031;-63
2023/09/30 11:09:13;;;;;;;9.23;4.50;;;;;;;27.14;26.62;99987.56;5123182;27;20100;-62
2023/09/30 11:11:43;;;;;;;10.93;5.47;;;;;;;27.15;27.03;99979.13;5122586;27;20062;-63
2023/09/30 11:14:17;;;;;;;8.40;4.75;;;;;;;27.19;26.84;99988.38;5121901;27;20063;-63
2023/09/30 11:16:43;;;;;;;10.20;4.00;;;;;;;27.13;26.15;99984.00;5122088;27;20039;-64
2023/09/30 11:19:09;;;;;;;7.55;4.13;;;;;;;27.18;26.18;99972.34;5122357;27;20035;-63
2023/09/30 11:21:35;;;;;;;10.80;4.15;;;;;;;27.17;26.25;99979.69;5131421;27;20055;-63